<?xml version="1.0" encoding="UTF-8"?><gpx version="1.1" creator="Relive" xmlns="http://www.topografix.com/GPX/1/1" xmlns:xsi="http://www.w3.org/2001/XMLSchema-instance" xsi:schemaLocation="http://www.topografix.com/GPX/1/1 http://www.topografix.com/GPX/1/1/gpx.xsd http://www.garmin.com/xmlschemas/TrackPointExtension/v1 http://www.garmin.com/xmlschemas/TrackPointExtensionv1.xsd http://www.garmin.com/xmlschemas/GpxExtensions/v3 http://www.garmin.com/xmlschemas/GpxExtensionsv3.xsd" xmlns:gpxtpx="http://www.garmin.com/xmlschemas/TrackPointExtension/v1" xmlns:gpxx="http://www.garmin.com/xmlschemas/GpxExtensions/v3"><metadata><time>2023-07-10T08:45:47.000Z</time><name>Hliniky singletrail 2</name></metadata><trk><trkseg><trkpt lat="48.734891" lon="17.574889"><time>2023-07-10T08:45:47.000Z</time><ele>486.51</ele></trkpt><trkpt lat="48.734923" lon="17.57481"><time>2023-07-10T08:46:06.000Z</time><ele>487.34</ele></trkpt><trkpt lat="48.734952" lon="17.574732"><time>2023-07-10T08:46:08.000Z</time><ele>486.45</ele></trkpt><trkpt lat="48.734998" lon="17.574636"><time>2023-07-10T08:46:10.000Z</time><ele>485.52</ele></trkpt><trkpt lat="48.735044" lon="17.574532"><time>2023-07-10T08:46:12.000Z</time><ele>483.67</ele></trkpt><trkpt lat="48.735083" lon="17.574486"><time>2023-07-10T08:46:14.000Z</time><ele>483.68</ele></trkpt><trkpt lat="48.735137" lon="17.574451"><time>2023-07-10T08:46:47.000Z</time><ele>482.13</ele></trkpt><trkpt lat="48.735199" lon="17.57443"><time>2023-07-10T08:46:50.000Z</time><ele>480.92</ele></trkpt><trkpt lat="48.735256" lon="17.574402"><time>2023-07-10T08:46:52.000Z</time><ele>482.09</ele></trkpt><trkpt lat="48.735318" lon="17.574299"><time>2023-07-10T08:46:54.000Z</time><ele>481.85</ele></trkpt><trkpt lat="48.735344" lon="17.574235"><time>2023-07-10T08:46:55.000Z</time><ele>481.21</ele></trkpt><trkpt lat="48.735361" lon="17.574167"><time>2023-07-10T08:46:56.000Z</time><ele>481.11</ele></trkpt><trkpt lat="48.735362" lon="17.574089"><time>2023-07-10T08:46:57.000Z</time><ele>479.54</ele></trkpt><trkpt lat="48.735362" lon="17.573984"><time>2023-07-10T08:46:58.000Z</time><ele>479.75</ele></trkpt><trkpt lat="48.73535" lon="17.573909"><time>2023-07-10T08:46:59.000Z</time><ele>479.55</ele></trkpt><trkpt lat="48.735351" lon="17.573836"><time>2023-07-10T08:47:00.000Z</time><ele>478.84</ele></trkpt><trkpt lat="48.735371" lon="17.573708"><time>2023-07-10T08:47:02.000Z</time><ele>477.74</ele></trkpt><trkpt lat="48.735375" lon="17.573629"><time>2023-07-10T08:47:03.000Z</time><ele>476.05</ele></trkpt><trkpt lat="48.735398" lon="17.57348"><time>2023-07-10T08:47:05.000Z</time><ele>473.8</ele></trkpt><trkpt lat="48.735431" lon="17.573431"><time>2023-07-10T08:47:06.000Z</time><ele>473.38</ele></trkpt><trkpt lat="48.735459" lon="17.57337"><time>2023-07-10T08:47:07.000Z</time><ele>472.31</ele></trkpt><trkpt lat="48.735486" lon="17.573255"><time>2023-07-10T08:47:09.000Z</time><ele>472.97</ele></trkpt><trkpt lat="48.735532" lon="17.57312"><time>2023-07-10T08:47:11.000Z</time><ele>473</ele></trkpt><trkpt lat="48.735568" lon="17.573067"><time>2023-07-10T08:47:12.000Z</time><ele>472.31</ele></trkpt><trkpt lat="48.73562" lon="17.573028"><time>2023-07-10T08:47:13.000Z</time><ele>470.99</ele></trkpt><trkpt lat="48.73567" lon="17.573015"><time>2023-07-10T08:47:14.000Z</time><ele>469.98</ele></trkpt><trkpt lat="48.735735" lon="17.572935"><time>2023-07-10T08:47:16.000Z</time><ele>469.67</ele></trkpt><trkpt lat="48.735743" lon="17.572857"><time>2023-07-10T08:47:17.000Z</time><ele>468.76</ele></trkpt><trkpt lat="48.735755" lon="17.57274"><time>2023-07-10T08:47:19.000Z</time><ele>469.27</ele></trkpt><trkpt lat="48.73582" lon="17.572678"><time>2023-07-10T08:47:21.000Z</time><ele>465.62</ele></trkpt><trkpt lat="48.735877" lon="17.572662"><time>2023-07-10T08:47:22.000Z</time><ele>465.01</ele></trkpt><trkpt lat="48.735951" lon="17.572608"><time>2023-07-10T08:47:24.000Z</time><ele>462.88</ele></trkpt><trkpt lat="48.735958" lon="17.572526"><time>2023-07-10T08:47:25.000Z</time><ele>462.46</ele></trkpt><trkpt lat="48.736006" lon="17.572452"><time>2023-07-10T08:47:27.000Z</time><ele>464.54</ele></trkpt><trkpt lat="48.736068" lon="17.572436"><time>2023-07-10T08:47:29.000Z</time><ele>463.41</ele></trkpt><trkpt lat="48.736122" lon="17.572344"><time>2023-07-10T08:47:31.000Z</time><ele>463.07</ele></trkpt><trkpt lat="48.736131" lon="17.572263"><time>2023-07-10T08:47:32.000Z</time><ele>462.44</ele></trkpt><trkpt lat="48.736164" lon="17.572183"><time>2023-07-10T08:47:33.000Z</time><ele>460.66</ele></trkpt><trkpt lat="48.736194" lon="17.572113"><time>2023-07-10T08:47:34.000Z</time><ele>460.36</ele></trkpt><trkpt lat="48.736236" lon="17.572042"><time>2023-07-10T08:47:35.000Z</time><ele>458.69</ele></trkpt><trkpt lat="48.736271" lon="17.571985"><time>2023-07-10T08:47:36.000Z</time><ele>457.35</ele></trkpt><trkpt lat="48.73631" lon="17.571929"><time>2023-07-10T08:47:37.000Z</time><ele>455.81</ele></trkpt><trkpt lat="48.736345" lon="17.571869"><time>2023-07-10T08:47:38.000Z</time><ele>455.51</ele></trkpt><trkpt lat="48.736376" lon="17.571813"><time>2023-07-10T08:47:39.000Z</time><ele>454.47</ele></trkpt><trkpt lat="48.736426" lon="17.571722"><time>2023-07-10T08:47:41.000Z</time><ele>453.56</ele></trkpt><trkpt lat="48.736484" lon="17.571649"><time>2023-07-10T08:47:43.000Z</time><ele>450.7</ele></trkpt><trkpt lat="48.736576" lon="17.57163"><time>2023-07-10T08:47:45.000Z</time><ele>448.55</ele></trkpt><trkpt lat="48.73663" lon="17.571616"><time>2023-07-10T08:47:46.000Z</time><ele>448.53</ele></trkpt><trkpt lat="48.736682" lon="17.571593"><time>2023-07-10T08:47:48.000Z</time><ele>446.53</ele></trkpt><trkpt lat="48.736691" lon="17.571515"><time>2023-07-10T08:47:49.000Z</time><ele>445.54</ele></trkpt><trkpt lat="48.736708" lon="17.571446"><time>2023-07-10T08:47:50.000Z</time><ele>444.37</ele></trkpt><trkpt lat="48.7367" lon="17.571371"><time>2023-07-10T08:47:52.000Z</time><ele>443.13</ele></trkpt><trkpt lat="48.73673" lon="17.571305"><time>2023-07-10T08:47:56.000Z</time><ele>444.78</ele></trkpt><trkpt lat="48.736769" lon="17.571244"><time>2023-07-10T08:47:58.000Z</time><ele>444.78</ele></trkpt><trkpt lat="48.736836" lon="17.571169"><time>2023-07-10T08:48:00.000Z</time><ele>444.28</ele></trkpt><trkpt lat="48.736874" lon="17.571132"><time>2023-07-10T08:48:01.000Z</time><ele>443.14</ele></trkpt><trkpt lat="48.736922" lon="17.57109"><time>2023-07-10T08:48:03.000Z</time><ele>444.93</ele></trkpt><trkpt lat="48.736983" lon="17.571098"><time>2023-07-10T08:48:05.000Z</time><ele>442.36</ele></trkpt><trkpt lat="48.737062" lon="17.571064"><time>2023-07-10T08:48:07.000Z</time><ele>440.55</ele></trkpt><trkpt lat="48.737124" lon="17.570917"><time>2023-07-10T08:48:09.000Z</time><ele>437.52</ele></trkpt><trkpt lat="48.737158" lon="17.57086"><time>2023-07-10T08:48:10.000Z</time><ele>437.74</ele></trkpt><trkpt lat="48.7372" lon="17.570777"><time>2023-07-10T08:48:12.000Z</time><ele>437.45</ele></trkpt><trkpt lat="48.737246" lon="17.570749"><time>2023-07-10T08:48:13.000Z</time><ele>438.41</ele></trkpt><trkpt lat="48.73728" lon="17.5707"><time>2023-07-10T08:48:14.000Z</time><ele>438.02</ele></trkpt><trkpt lat="48.73734" lon="17.570619"><time>2023-07-10T08:48:16.000Z</time><ele>437.73</ele></trkpt><trkpt lat="48.737372" lon="17.570571"><time>2023-07-10T08:48:17.000Z</time><ele>437.3</ele></trkpt><trkpt lat="48.737406" lon="17.570446"><time>2023-07-10T08:48:19.000Z</time><ele>438.85</ele></trkpt><trkpt lat="48.737445" lon="17.570349"><time>2023-07-10T08:48:21.000Z</time><ele>438.57</ele></trkpt><trkpt lat="48.737487" lon="17.570278"><time>2023-07-10T08:48:23.000Z</time><ele>438.35</ele></trkpt><trkpt lat="48.737562" lon="17.570219"><time>2023-07-10T08:48:25.000Z</time><ele>436.8</ele></trkpt><trkpt lat="48.737597" lon="17.570164"><time>2023-07-10T08:48:26.000Z</time><ele>437.35</ele></trkpt><trkpt lat="48.737643" lon="17.570113"><time>2023-07-10T08:48:27.000Z</time><ele>436.85</ele></trkpt><trkpt lat="48.737678" lon="17.570065"><time>2023-07-10T08:48:28.000Z</time><ele>434.62</ele></trkpt><trkpt lat="48.737721" lon="17.569986"><time>2023-07-10T08:48:30.000Z</time><ele>434.04</ele></trkpt><trkpt lat="48.737775" lon="17.569907"><time>2023-07-10T08:48:32.000Z</time><ele>431.38</ele></trkpt><trkpt lat="48.737844" lon="17.569855"><time>2023-07-10T08:48:34.000Z</time><ele>430.57</ele></trkpt><trkpt lat="48.737909" lon="17.569766"><time>2023-07-10T08:48:36.000Z</time><ele>429.38</ele></trkpt><trkpt lat="48.738035" lon="17.569622"><time>2023-07-10T08:48:39.000Z</time><ele>428.13</ele></trkpt><trkpt lat="48.738081" lon="17.569566"><time>2023-07-10T08:48:40.000Z</time><ele>428.25</ele></trkpt><trkpt lat="48.738103" lon="17.569499"><time>2023-07-10T08:48:41.000Z</time><ele>428.03</ele></trkpt><trkpt lat="48.738117" lon="17.569372"><time>2023-07-10T08:48:43.000Z</time><ele>427.4</ele></trkpt><trkpt lat="48.738136" lon="17.569286"><time>2023-07-10T08:48:45.000Z</time><ele>427.01</ele></trkpt><trkpt lat="48.738146" lon="17.569184"><time>2023-07-10T08:48:47.000Z</time><ele>426.01</ele></trkpt><trkpt lat="48.738202" lon="17.569152"><time>2023-07-10T08:48:48.000Z</time><ele>426.26</ele></trkpt><trkpt lat="48.738247" lon="17.56913"><time>2023-07-10T08:48:49.000Z</time><ele>424.59</ele></trkpt><trkpt lat="48.738291" lon="17.569102"><time>2023-07-10T08:48:50.000Z</time><ele>423.44</ele></trkpt><trkpt lat="48.738347" lon="17.569077"><time>2023-07-10T08:48:52.000Z</time><ele>424.2</ele></trkpt><trkpt lat="48.738394" lon="17.569029"><time>2023-07-10T08:48:56.000Z</time><ele>421.36</ele></trkpt><trkpt lat="48.738427" lon="17.568949"><time>2023-07-10T08:48:59.000Z</time><ele>421.22</ele></trkpt><trkpt lat="48.738466" lon="17.568728"><time>2023-07-10T08:49:02.000Z</time><ele>418.47</ele></trkpt><trkpt lat="48.738512" lon="17.568623"><time>2023-07-10T08:49:04.000Z</time><ele>418.12</ele></trkpt><trkpt lat="48.738547" lon="17.568573"><time>2023-07-10T08:49:05.000Z</time><ele>417.07</ele></trkpt><trkpt lat="48.738598" lon="17.568569"><time>2023-07-10T08:49:06.000Z</time><ele>416.76</ele></trkpt><trkpt lat="48.738644" lon="17.568525"><time>2023-07-10T08:49:08.000Z</time><ele>418.05</ele></trkpt><trkpt lat="48.738709" lon="17.568519"><time>2023-07-10T08:49:10.000Z</time><ele>417.73</ele></trkpt><trkpt lat="48.738766" lon="17.56856"><time>2023-07-10T08:49:13.000Z</time><ele>417.21</ele></trkpt><trkpt lat="48.738825" lon="17.568559"><time>2023-07-10T08:49:15.000Z</time><ele>415.97</ele></trkpt><trkpt lat="48.738892" lon="17.568562"><time>2023-07-10T08:49:17.000Z</time><ele>412.98</ele></trkpt><trkpt lat="48.738937" lon="17.568571"><time>2023-07-10T08:49:20.000Z</time><ele>413.4</ele></trkpt><trkpt lat="48.738937" lon="17.568571"><time>2023-07-10T08:49:20.001Z</time><ele>413.4</ele></trkpt></trkseg></trk></gpx>